Time;durP1;ratioP1;P1;durP2;ratioP2;P2;SDS_P1;SDS_P2;PMS_P1;PMS_P2;Temp;Humidity;BMP_temperature;BMP_pressure;BME280_temperature;BME280_humidity;BME280_pressure;Samples;Min_cycle;Max_cycle;Signal;HPM_P1;HPM_P2
2022/10/03 00:02:12;;;;;;;11.85;4.28;;;;;;;10.15;77.85;102472.19;6143508;23;20096;-86
2022/10/03 00:04:48;;;;;;;9.77;4.35;;;;;;;10.08;78.19;102476.69;6119271;23;20080;-86
2022/10/03 00:07:44;;;;;;;8.30;3.60;;;;;;;10.11;76.90;102481.91;6145274;23;20017;-86
2022/10/03 00:10:34;;;;;;;12.20;4.82;;;;;;;10.12;78.16;102482.81;6119300;23;20013;-86
2022/10/03 00:13:24;;;;;;;7.53;3.53;;;;;;;10.12;78.36;102481.06;6121275;23;20441;-86
2022/10/03 00:16:00;;;;;;;12.68;3.88;;;;;;;10.15;78.44;102472.19;6117968;23;20489;-86
2022/10/03 00:18:51;;;;;;;8.75;4.60;;;;;;;10.16;78.32;102485.38;6118586;23;20659;-86
2022/10/03 00:21:35;;;;;;;10.82;4.35;;;;;;;10.17;78.51;102487.16;6119773;23;20032;-86
2022/10/03 00:24:28;;;;;;;10.23;4.20;;;;;;;10.15;78.37;102485.41;6120804;23;20010;-86
2022/10/03 00:27:11;;;;;;;9.98;3.90;;;;;;;10.13;77.39;102482.78;6119080;23;20010;-86
2022/10/03 00:30:15;;;;;;;11.02;4.55;;;;;;;10.15;77.23;102488.91;6116468;23;20386;-86
2022/10/03 00:33:02;;;;;;;7.57;3.92;;;;;;;10.08;77.63;102497.84;6030842;23;20082;-86
2022/10/03 00:35:42;;;;;;;16.02;5.03;;;;;;;10.03;77.76;102502.31;6115392;23;20001;-86
2022/10/03 00:38:18;;;;;;;9.18;4.43;;;;;;;9.96;78.12;102496.19;6118145;23;20076;-86
2022/10/03 00:40:46;;;;;;;8.48;4.07;;;;;;;9.95;78.38;102501.50;6120349;23;20006;-86
2022/10/03 00:43:42;;;;;;;8.90;3.63;;;;;;;9.99;77.14;102505.00;6120037;23;20044;-86
2022/10/03 00:46:19;;;;;;;10.35;4.57;;;;;;;9.93;77.89;102511.19;6120537;23;20291;-86
2022/10/03 00:49:22;;;;;;;12.60;3.83;;;;;;;9.92;77.20;102518.25;6121408;23;20008;-86
2022/10/03 00:51:56;;;;;;;12.75;4.22;;;;;;;9.88;77.13;102510.38;6120429;23;20438;-86
2022/10/03 00:54:27;;;;;;;10.23;3.90;;;;;;;9.84;78.08;102509.53;6116388;23;20006;-86
2022/10/03 00:57:05;;;;;;;6.45;4.43;;;;;;;9.84;78.19;102514.84;6120572;23;20008;-86
2022/10/03 01:00:00;;;;;;;10.13;4.40;;;;;;;9.84;78.21;102513.94;6118736;23;20038;-86
2022/10/03 01:02:40;;;;;;;9.75;4.10;;;;;;;9.78;78.57;102519.28;6119270;23;20494;-86
2022/10/03 01:05:14;;;;;;;6.50;3.63;;;;;;;9.76;78.04;102519.31;6120069;23;20002;-86
2022/10/03 01:07:58;;;;;;;8.30;4.03;;;;;;;9.69;77.83;102514.97;6118532;23;20006;-86
2022/10/03 01:10:29;;;;;;;8.90;4.03;;;;;;;9.65;79.37;102529.97;6119465;23;20085;-86
2022/10/03 01:13:00;;;;;;;9.55;3.97;;;;;;;9.65;78.90;102526.44;6120589;23;20006;-86
2022/10/03 01:15:55;;;;;;;11.35;4.22;;;;;;;9.64;78.58;102528.22;6117739;23;20398;-86
2022/10/03 01:18:36;;;;;;;11.38;4.28;;;;;;;9.59;79.37;102539.72;6119482;23;20133;-86
2022/10/03 01:21:10;;;;;;;7.95;4.15;;;;;;;9.57;79.58;102546.78;6118370;23;20009;-86
2022/10/03 01:24:12;;;;;;;10.13;4.15;;;;;;;9.56;79.13;102548.53;6118184;23;20006;-86
2022/10/03 01:26:43;;;;;;;7.32;3.70;;;;;;;9.52;79.28;102544.19;6117979;23;20434;-86
2022/10/03 01:32:13;;;;;;;8.60;4.63;;;;;;;9.56;79.22;102552.94;6117790;23;20270;-86
2022/10/03 01:35:36;;;;;;;12.75;5.10;;;;;;;9.57;79.26;102547.66;6119872;23;20009;-86
2022/10/03 01:38:29;;;;;;;8.55;4.50;;;;;;;9.45;79.90;102545.09;6030360;23;20007;-86
2022/10/03 01:40:59;;;;;;;12.35;4.20;;;;;;;9.37;80.19;102552.19;6029784;23;20038;-86
2022/10/03 01:43:54;;;;;;;13.48;5.13;;;;;;;9.37;79.15;102539.91;6096001;23;20454;-86
2022/10/03 01:46:43;;;;;;;9.20;4.45;;;;;;;9.31;79.67;102537.28;6120159;23;20006;-86
2022/10/03 01:49:37;;;;;;;8.35;4.00;;;;;;;9.38;79.10;102546.06;6120025;23;20390;-86
2022/10/03 01:52:19;;;;;;;11.88;4.55;;;;;;;9.36;80.15;102537.25;6118947;23;20408;-86
2022/10/03 01:55:07;;;;;;;11.30;4.43;;;;;;;9.36;79.62;102545.19;6118967;23;20013;-86
2022/10/03 01:57:48;;;;;;;8.35;4.53;;;;;;;9.23;80.57;102540.88;6117664;23;20359;-86
2022/10/03 02:00:17;;;;;;;10.40;4.55;;;;;;;9.20;80.33;102541.78;6116881;23;20010;-85
2022/10/03 02:02:59;;;;;;;16.08;6.05;;;;;;;9.18;80.58;102535.63;6114928;23;20469;-86
2022/10/03 02:05:43;;;;;;;11.18;4.95;;;;;;;9.18;80.17;102549.69;6117487;23;20006;-86
2022/10/03 02:08:29;;;;;;;11.85;4.57;;;;;;;9.22;80.06;102549.69;6118750;23;20029;-86
2022/10/03 02:11:01;;;;;;;6.90;4.40;;;;;;;9.19;79.47;102543.56;6118039;23;20010;-86
2022/10/03 02:13:29;;;;;;;12.02;5.28;;;;;;;9.19;80.54;102548.84;6119798;23;20529;-86
2022/10/03 02:16:08;;;;;;;9.68;4.72;;;;;;;9.15;80.62;102549.72;6116884;23;20009;-85
2022/10/03 02:18:59;;;;;;;7.95;4.50;;;;;;;9.15;80.10;102554.13;6120428;23;20006;-86
2022/10/03 02:21:27;;;;;;;9.85;4.55;;;;;;;9.09;80.09;102555.06;6104162;23;20006;-86
2022/10/03 02:24:25;;;;;;;9.55;4.57;;;;;;;9.11;79.82;102550.63;6120197;23;20383;-85
2022/10/03 02:27:28;;;;;;;7.80;4.22;;;;;;;9.12;79.77;102560.31;6119413;23;20085;-86
2022/10/03 02:30:12;;;;;;;9.90;4.65;;;;;;;9.09;81.20;102552.44;6118444;23;20006;-86
2022/10/03 02:33:09;;;;;;;13.63;5.00;;;;;;;9.07;80.88;102554.19;6120151;23;20459;-86
2022/10/03 02:35:41;;;;;;;11.48;5.07;;;;;;;9.04;81.51;102548.03;6119626;23;20013;-85
2022/10/03 02:38:16;;;;;;;12.27;5.60;;;;;;;9.02;81.67;102555.97;6119562;23;20002;-86
2022/10/03 02:40:55;;;;;;;12.80;5.18;;;;;;;9.03;81.76;102554.22;6117856;23;20468;-86
2022/10/03 02:43:42;;;;;;;16.92;4.97;;;;;;;9.05;80.55;102555.09;6119272;23;20472;-85
2022/10/03 02:46:41;;;;;;;10.20;4.78;;;;;;;9.02;81.33;102541.91;6117117;23;20010;-86
2022/10/03 02:49:44;;;;;;;10.05;4.97;;;;;;;9.07;80.83;102555.94;6117079;23;20009;-85
2022/10/03 02:52:38;;;;;;;12.13;4.97;;;;;;;9.03;81.58;102552.44;6117457;23;20061;-86
2022/10/03 02:55:27;;;;;;;12.23;4.95;;;;;;;9.00;81.62;102548.94;6118131;23;20209;-85
2022/10/03 02:58:20;;;;;;;8.93;4.78;;;;;;;9.00;80.70;102548.94;6116784;23;20020;-86
2022/10/03 03:00:57;;;;;;;11.10;4.50;;;;;;;8.97;80.96;102547.22;6117469;23;20032;-86
2022/10/03 03:03:57;;;;;;;7.22;4.25;;;;;;;8.98;81.11;102545.44;6118272;23;20105;-85
2022/10/03 03:06:40;;;;;;;8.20;5.05;;;;;;;8.93;81.59;102542.84;6119319;23;20009;-85
2022/10/03 03:09:29;;;;;;;7.60;4.78;;;;;;;8.92;80.10;102552.50;6117843;23;20013;-86
2022/10/03 03:12:16;;;;;;;8.68;4.93;;;;;;;8.90;81.10;102546.34;6077766;23;20030;-85
2022/10/03 03:15:18;;;;;;;10.88;4.90;;;;;;;8.93;80.90;102554.25;6118166;23;20032;-85
2022/10/03 03:17:53;;;;;;;11.10;5.10;;;;;;;8.89;80.77;102546.38;6120343;23;20046;-85
2022/10/03 03:20:31;;;;;;;10.65;5.25;;;;;;;8.84;81.40;102550.81;6119546;23;20037;-86
2022/10/03 03:23:17;;;;;;;13.13;5.22;;;;;;;8.83;81.22;102554.34;6121688;23;20242;-85
2022/10/03 03:26:14;;;;;;;13.57;5.28;;;;;;;8.84;81.46;102569.25;6120897;23;20040;-85
2022/10/03 03:28:51;;;;;;;12.77;5.50;;;;;;;8.74;81.97;102573.72;6119302;23;19997;-85
2022/10/03 03:31:28;;;;;;;11.88;6.22;;;;;;;8.69;82.48;102560.53;6117672;23;20342;-86
2022/10/03 03:34:20;;;;;;;13.10;5.63;;;;;;;8.78;81.86;102557.00;6119277;23;20005;-85
2022/10/03 03:37:27;;;;;;;10.77;5.25;;;;;;;8.78;81.27;102564.91;6118774;23;20036;-85
2022/10/03 03:40:28;;;;;;;7.88;4.93;;;;;;;8.79;81.27;102560.50;6117888;23;20395;-85
2022/10/03 03:43:08;;;;;;;14.30;5.90;;;;;;;8.75;81.10;102564.91;6118828;23;20379;-85
2022/10/03 03:45:49;;;;;;;12.52;5.40;;;;;;;8.68;81.75;102558.81;6119884;23;20347;-85
2022/10/03 03:48:21;;;;;;;8.65;4.68;;;;;;;8.61;80.98;102561.47;6122533;23;20064;-85
2022/10/03 03:51:28;;;;;;;10.40;4.97;;;;;;;8.64;80.83;102557.06;6119304;23;20457;-86
2022/10/03 03:54:08;;;;;;;10.45;5.00;;;;;;;8.61;80.49;102567.59;6041184;23;20019;-85
2022/10/03 03:56:39;;;;;;;7.90;5.35;;;;;;;8.58;80.91;102572.91;6118913;23;20351;-85
2022/10/03 03:59:37;;;;;;;9.95;5.03;;;;;;;8.61;81.03;102572.00;6120355;23;20502;-85
2022/10/03 04:02:21;;;;;;;9.80;5.50;;;;;;;8.57;81.35;102565.88;6120245;23;20088;-85
2022/10/03 04:05:25;;;;;;;8.63;4.82;;;;;;;8.60;80.88;102570.25;6119940;23;20013;-85
2022/10/03 04:08:20;;;;;;;6.93;4.40;;;;;;;8.48;81.56;102573.81;6061285;23;20390;-86
2022/10/03 04:11:01;;;;;;;11.88;5.15;;;;;;;8.48;81.35;102578.19;6120270;23;20069;-85
2022/10/03 04:14:04;;;;;;;9.65;4.60;;;;;;;8.46;80.99;102574.72;6119998;23;20093;-85
2022/10/03 04:19:24;;;;;;;11.05;4.70;;;;;;;8.48;81.93;102581.72;6121095;23;19924;-85
2022/10/03 04:22:03;;;;;;;8.02;4.88;;;;;;;8.49;81.67;102588.75;6122045;23;20009;-85
2022/10/03 04:24:42;;;;;;;9.02;5.30;;;;;;;8.53;82.45;102582.56;6119361;23;20012;-86
2022/10/03 04:27:31;;;;;;;12.73;5.68;;;;;;;8.63;82.95;102576.41;6119902;23;20533;-85
2022/10/03 04:30:17;;;;;;;10.48;5.63;;;;;;;8.71;82.63;102575.47;6119611;23;20033;-85
2022/10/03 04:33:06;;;;;;;15.93;6.03;;;;;;;8.76;82.28;102589.50;6120677;23;20434;-85
2022/10/03 04:35:49;;;;;;;10.52;6.30;;;;;;;8.81;82.11;102587.72;6118749;23;20453;-85
2022/10/03 04:38:49;;;;;;;12.73;6.10;;;;;;;8.77;81.65;102580.75;6117445;23;20101;-86
2022/10/03 04:41:30;;;;;;;11.60;6.15;;;;;;;8.69;82.44;102573.72;6117418;23;20526;-86
2022/10/03 04:44:33;;;;;;;12.57;5.93;;;;;;;8.73;82.38;102582.50;6119909;23;20009;-86
2022/10/03 04:47:22;;;;;;;16.92;6.35;;;;;;;8.64;82.19;102579.91;6118333;23;20442;-86
2022/10/03 04:50:26;;;;;;;12.98;6.18;;;;;;;8.63;82.79;102586.94;6121743;23;20009;-85
2022/10/03 04:53:07;;;;;;;10.98;6.20;;;;;;;8.59;82.40;102587.84;6117277;23;20253;-86
2022/10/03 04:55:42;;;;;;;13.10;5.15;;;;;;;8.54;82.09;102580.84;6119425;23;20012;-85
2022/10/03 04:58:38;;;;;;;10.50;5.78;;;;;;;8.56;82.11;102581.69;6118886;23;20002;-86
2022/10/03 05:01:22;;;;;;;10.57;5.63;;;;;;;8.51;82.27;102581.72;6118607;23;20018;-85
2022/10/03 05:03:53;;;;;;;9.65;5.57;;;;;;;8.50;82.37;102579.09;6118291;23;20006;-85
2022/10/03 05:06:41;;;;;;;9.02;5.05;;;;;;;8.53;82.27;102581.69;6117513;23;20013;-85
2022/10/03 05:09:24;;;;;;;10.10;5.07;;;;;;;8.55;81.83;102587.84;6120129;23;20253;-85
2022/10/03 05:12:26;;;;;;;13.68;5.93;;;;;;;8.53;81.68;102581.69;6118517;23;20013;-85
2022/10/03 05:15:01;;;;;;;7.87;5.73;;;;;;;8.49;82.25;102594.03;6074415;23;20438;-85
2022/10/03 05:17:36;;;;;;;9.30;5.05;;;;;;;8.41;81.02;102595.81;6119083;23;20472;-85
2022/10/03 05:20:34;;;;;;;7.95;5.00;;;;;;;8.43;82.32;102599.31;6120908;23;20006;-85
2022/10/03 05:23:38;;;;;;;8.48;4.78;;;;;;;8.36;81.85;102598.47;6119886;23;20002;-85
2022/10/03 05:26:14;;;;;;;6.97;4.65;;;;;;;8.34;82.06;102596.66;6114242;23;20057;-86
2022/10/03 05:28:49;;;;;;;10.43;5.30;;;;;;;8.32;81.67;102595.81;6117579;23;20025;-85
2022/10/03 05:31:47;;;;;;;8.70;4.72;;;;;;;8.31;81.49;102602.84;6118929;23;20497;-85
2022/10/03 05:34:28;;;;;;;8.88;4.53;;;;;;;8.28;81.59;102605.47;6142774;23;20009;-85
2022/10/03 05:37:19;;;;;;;8.85;4.90;;;;;;;8.28;81.97;102610.72;6115425;23;20123;-86
2022/10/03 05:39:54;;;;;;;7.85;5.13;;;;;;;8.27;82.13;102610.75;6118198;23;20020;-85
2022/10/03 05:42:38;;;;;;;9.70;5.07;;;;;;;8.30;82.32;102616.00;6117005;23;20069;-85
2022/10/03 05:45:47;;;;;;;9.43;4.80;;;;;;;8.34;82.13;102620.38;6142355;23;20017;-87
2022/10/03 05:48:51;;;;;;;11.55;4.90;;;;;;;8.41;82.45;102625.69;6078606;23;20009;-87
2022/10/03 05:51:32;;;;;;;10.93;5.10;;;;;;;8.43;83.28;102618.63;6117183;23;20469;-86
2022/10/03 05:54:16;;;;;;;8.52;5.70;;;;;;;8.47;82.98;102626.53;6119534;23;20005;-86
2022/10/03 05:56:57;;;;;;;12.73;5.25;;;;;;;8.54;82.68;102623.03;6119397;23;20440;-86
2022/10/03 05:59:42;;;;;;;12.50;5.90;;;;;;;8.63;82.54;102629.13;6118511;23;20017;-86
2022/10/03 06:02:53;;;;;;;8.20;4.95;;;;;;;8.72;82.68;102627.31;6118843;23;20089;-86
2022/10/03 06:05:43;;;;;;;14.15;4.55;;;;;;;8.67;82.16;102622.97;6004158;23;20409;-87
2022/10/03 06:08:38;;;;;;;10.35;5.47;;;;;;;8.66;82.31;102634.38;6007022;23;20102;-87
2022/10/03 06:11:19;;;;;;;10.15;4.97;;;;;;;8.66;82.49;102629.09;6103637;23;20451;-87
2022/10/03 06:13:53;;;;;;;9.65;5.28;;;;;;;8.72;82.41;102635.22;6117946;23;20065;-87
2022/10/03 06:16:35;;;;;;;9.88;5.32;;;;;;;8.76;82.79;102634.34;6120224;23;20029;-86
2022/10/03 06:19:02;;;;;;;8.43;5.47;;;;;;;8.78;82.13;102638.75;6119555;23;20028;-87
2022/10/03 06:22:08;;;;;;;14.63;6.57;;;;;;;8.85;82.74;102643.09;6121277;23;20006;-87
2022/10/03 06:25:04;;;;;;;13.38;5.65;;;;;;;8.90;82.26;102643.94;6144027;23;20456;-86
2022/10/03 06:27:48;;;;;;;11.20;5.90;;;;;;;8.88;82.70;102647.50;6117582;23;20315;-87
2022/10/03 06:30:35;;;;;;;8.80;5.72;;;;;;;8.91;83.51;102639.56;6118558;23;20032;-87
2022/10/03 06:33:32;;;;;;;9.65;5.22;;;;;;;8.94;83.87;102632.50;6120917;23;20061;-87
2022/10/03 06:36:26;;;;;;;9.70;5.53;;;;;;;8.96;83.03;102637.78;6119388;23;20461;-87
2022/10/03 06:39:19;;;;;;;11.10;5.60;;;;;;;9.00;82.75;102652.72;6121052;23;20006;-87
2022/10/03 06:42:23;;;;;;;9.52;5.57;;;;;;;9.04;82.41;102659.72;6119784;23;20006;-87
2022/10/03 06:45:10;;;;;;;10.00;5.68;;;;;;;9.07;83.15;102664.13;6118427;23;20002;-87
2022/10/03 06:47:41;;;;;;;15.80;5.53;;;;;;;9.06;82.66;102644.78;6120576;23;20084;-87
2022/10/03 06:50:24;;;;;;;13.13;5.82;;;;;;;9.13;83.10;102654.41;6121998;23;20054;-87
2022/10/03 06:53:32;;;;;;;10.50;6.03;;;;;;;9.19;83.52;102653.50;6146256;23;20462;-87
2022/10/03 06:56:25;;;;;;;10.10;6.43;;;;;;;9.19;84.19;102653.50;6122555;23;20109;-87
2022/10/03 06:59:14;;;;;;;13.85;6.93;;;;;;;9.28;84.29;102655.19;6122448;23;20272;-87
2022/10/03 07:01:47;;;;;;;12.07;5.75;;;;;;;9.31;84.01;102649.91;6144818;23;20068;-86
2022/10/03 07:04:50;;;;;;;11.40;6.38;;;;;;;9.41;84.47;102651.59;6119624;23;20105;-86
2022/10/03 07:07:34;;;;;;;9.02;6.95;;;;;;;9.43;84.56;102657.78;6119826;23;20446;-87
2022/10/03 07:10:34;;;;;;;10.82;7.03;;;;;;;9.50;84.78;102661.22;6121300;23;20005;-87
2022/10/03 07:13:38;;;;;;;10.45;6.72;;;;;;;9.55;84.37;102657.66;6121130;23;20002;-87
2022/10/03 07:16:25;;;;;;;16.42;7.70;;;;;;;9.64;84.71;102668.16;6119342;23;20017;-87
2022/10/03 07:19:25;;;;;;;17.05;7.75;;;;;;;9.70;84.98;102668.16;6123659;23;20005;-86
2022/10/03 07:22:23;;;;;;;14.68;7.53;;;;;;;9.79;84.66;102667.22;6090278;23;20052;-87
2022/10/03 07:25:23;;;;;;;15.52;7.78;;;;;;;9.90;84.44;102659.19;6121124;23;20006;-86
2022/10/03 07:28:06;;;;;;;15.75;8.18;;;;;;;9.99;85.03;102668.81;6121585;23;20030;-86
2022/10/03 07:30:47;;;;;;;12.50;7.63;;;;;;;10.06;84.68;102667.84;6119896;23;20010;-86
2022/10/03 07:33:45;;;;;;;15.45;7.10;;;;;;;10.17;84.22;102666.88;6121084;23;20017;-86
2022/10/03 07:39:39;;;;;;;17.30;8.02;;;;;;;10.37;84.73;102677.28;6123050;23;20025;-86
2022/10/03 07:42:13;;;;;;;20.67;9.20;;;;;;;10.46;85.42;102671.91;6119355;23;20056;-85
2022/10/03 07:44:48;;;;;;;13.77;7.80;;;;;;;10.61;85.86;102684.09;6121508;23;20445;-85
2022/10/03 07:47:17;;;;;;;18.48;9.15;;;;;;;10.86;86.56;102683.81;6119539;23;20017;-85
2022/10/03 07:50:17;;;;;;;14.88;8.40;;;;;;;11.08;84.77;102677.34;6122305;23;20009;-84
2022/10/03 07:53:12;;;;;;;21.65;9.00;;;;;;;11.36;84.65;102685.81;6120517;23;20016;-85
2022/10/03 07:56:10;;;;;;;16.73;8.68;;;;;;;11.67;83.19;102699.50;6041933;23;20015;-85
2022/10/03 07:59:09;;;;;;;19.38;9.25;;;;;;;11.94;83.06;102697.38;6120225;23;20465;-85
2022/10/03 08:02:15;;;;;;;13.00;8.38;;;;;;;12.43;83.03;102700.03;6118967;23;20026;-85
2022/10/03 08:05:17;;;;;;;11.90;7.43;;;;;;;12.92;81.23;102703.53;6122279;23;20020;-85
2022/10/03 08:08:17;;;;;;;19.40;7.78;;;;;;;13.32;79.01;102700.94;6117994;23;20033;-85
2022/10/03 08:11:06;;;;;;;11.20;6.72;;;;;;;13.50;76.66;102699.66;6121815;23;20434;-85
2022/10/03 08:13:53;;;;;;;11.45;6.32;;;;;;;13.93;76.54;102701.31;6144224;23;20037;-85
2022/10/03 08:17:05;;;;;;;11.45;7.50;;;;;;;14.38;75.32;102701.94;6119409;23;20001;-85
2022/10/03 08:19:55;;;;;;;9.63;6.25;;;;;;;14.59;74.52;102702.31;6091137;23;20109;-85
2022/10/03 08:22:45;;;;;;;12.80;6.68;;;;;;;14.96;73.70;102696.81;6121209;23;20422;-85
2022/10/03 08:25:44;;;;;;;7.85;5.43;;;;;;;15.25;72.25;102698.66;6120198;23;20006;-85
2022/10/03 08:28:40;;;;;;;10.63;5.43;;;;;;;15.54;71.22;102689.75;6119805;23;20505;-85
2022/10/03 08:31:24;;;;;;;9.80;5.72;;;;;;;16.03;70.22;102694.38;6121272;23;20518;-85
2022/10/03 08:34:09;;;;;;;15.25;5.85;;;;;;;16.71;69.11;102692.06;6120526;23;20088;-83
2022/10/03 08:37:05;;;;;;;8.90;4.90;;;;;;;17.27;67.34;102691.75;6119144;23;20270;-83
2022/10/03 08:39:53;;;;;;;8.20;4.15;;;;;;;18.14;64.41;102703.41;6121975;23;20021;-82
2022/10/03 08:42:51;;;;;;;9.48;4.93;;;;;;;18.73;63.55;102697.31;6120665;23;20012;-82
2022/10/03 08:45:43;;;;;;;15.15;4.70;;;;;;;18.72;62.64;102704.47;6120939;23;20027;-84
2022/10/03 08:48:40;;;;;;;11.40;4.87;;;;;;;19.17;61.01;102706.03;6119367;23;20001;-84
2022/10/03 08:51:25;;;;;;;8.30;4.80;;;;;;;19.10;58.15;102700.06;6119978;23;20092;-84
2022/10/03 08:54:24;;;;;;;8.38;4.30;;;;;;;19.73;58.96;102696.25;6119708;23;20459;-85
2022/10/03 08:57:17;;;;;;;14.23;4.80;;;;;;;20.43;57.89;102702.53;6117416;23;20342;-84
2022/10/03 09:00:04;;;;;;;9.95;4.88;;;;;;;21.16;54.29;102706.66;6121634;23;20493;-84
2022/10/03 09:02:47;;;;;;;8.07;4.70;;;;;;;21.30;54.77;102711.28;6120982;23;20010;-84
2022/10/03 09:05:35;;;;;;;13.05;4.40;;;;;;;21.94;53.53;102702.28;6121059;23;20013;-84
2022/10/03 09:08:31;;;;;;;7.07;3.67;;;;;;;22.65;51.64;102705.19;6117120;23;20464;-84
2022/10/03 09:11:39;;;;;;;7.30;3.47;;;;;;;23.74;48.45;102709.09;6119425;23;19998;-84
2022/10/03 09:14:34;;;;;;;5.78;3.28;;;;;;;22.73;50.96;102710.09;6118722;23;20016;-85
2022/10/03 09:17:05;;;;;;;6.07;3.05;;;;;;;21.48;49.41;102707.59;6119847;23;20302;-86
2022/10/03 09:20:06;;;;;;;9.85;3.70;;;;;;;21.83;50.56;102708.28;6120629;23;20045;-85
2022/10/03 09:22:43;;;;;;;7.97;3.08;;;;;;;23.67;48.17;102702.34;6030856;23;20448;-85
2022/10/03 09:25:18;;;;;;;10.32;3.60;;;;;;;24.34;44.45;102703.22;6110094;23;20013;-85
2022/10/03 09:28:30;;;;;;;5.85;2.80;;;;;;;23.10;49.65;102711.41;6116235;23;20002;-86
2022/10/03 09:31:20;;;;;;;5.97;2.93;;;;;;;22.35;48.80;102702.53;6007467;23;20143;-86
2022/10/03 09:34:02;;;;;;;6.93;2.85;;;;;;;23.40;47.40;102699.59;6119364;23;20057;-86
2022/10/03 09:37:05;;;;;;;9.65;2.92;;;;;;;24.21;46.64;102691.50;6117776;23;20426;-86
2022/10/03 09:39:30;;;;;;;5.82;2.10;;;;;;;24.36;41.95;102685.06;6118597;23;20061;-86
2022/10/03 09:42:53;;;;;;;4.55;1.67;;;;;;;24.29;42.73;102681.03;6121092;23;20458;-85
2022/10/03 09:45:21;;;;;;;5.72;1.67;;;;;;;23.45;43.93;102683.09;6029852;23;20007;-86
2022/10/03 09:48:08;;;;;;;8.05;1.75;;;;;;;23.01;44.51;102684.13;6030227;23;20373;-87
2022/10/03 09:51:05;;;;;;;8.23;2.92;;;;;;;22.51;48.32;102683.59;6085591;23;20076;-86
2022/10/03 09:54:02;;;;;;;9.15;2.55;;;;;;;22.24;48.28;102679.88;6119676;23;19998;-86
2022/10/03 09:56:43;;;;;;;9.23;1.98;;;;;;;22.47;46.92;102683.88;6118985;23;20013;-87
2022/10/03 09:59:27;;;;;;;9.93;1.80;;;;;;;23.15;46.77;102679.59;6120388;23;20084;-87
2022/10/03 10:02:21;;;;;;;3.50;1.65;;;;;;;23.25;46.27;102663.66;6118462;23;20022;-86
2022/10/03 10:05:05;;;;;;;6.63;1.58;;;;;;;22.61;47.43;102675.81;6120422;23;20002;-86
2022/10/03 10:08:06;;;;;;;7.25;2.30;;;;;;;22.65;46.59;102680.03;6119654;23;20052;-86
2022/10/03 10:10:43;;;;;;;7.00;2.05;;;;;;;23.25;45.40;102668.19;6119148;23;20057;-86
2022/10/03 10:13:24;;;;;;;8.07;1.75;;;;;;;23.34;44.94;102667.59;6115877;23;20028;-86
2022/10/03 10:16:11;;;;;;;7.22;1.83;;;;;;;24.12;44.52;102673.22;6117222;23;20434;-85
2022/10/03 10:18:47;;;;;;;4.57;1.45;;;;;;;25.17;41.79;102671.19;6117269;23;20458;-85
2022/10/03 10:21:53;;;;;;;5.97;1.70;;;;;;;25.47;41.54;102669.06;6118027;23;20006;-85
2022/10/03 10:24:51;;;;;;;8.82;1.90;;;;;;;25.58;40.98;102674.53;6118019;23;20013;-86
2022/10/03 10:27:41;;;;;;;5.55;1.60;;;;;;;25.93;39.71;102675.50;6119415;23;20307;-86
2022/10/03 10:30:13;;;;;;;7.40;1.55;;;;;;;26.79;36.87;102682.34;6120805;23;20482;-86
2022/10/03 10:32:57;;;;;;;;;;;;;;;28.19;39.59;102667.09;6120715;23;20030;-86
2022/10/03 10:36:05;;;;;;;6.72;1.83;;;;;;;29.39;35.24;102668.28;6121759;23;19920;-86
2022/10/03 10:39:21;;;;;;;5.43;1.48;;;;;;;30.00;34.08;102667.19;6122182;23;20006;-85
2022/10/03 10:42:24;;;;;;;6.32;2.00;;;;;;;30.21;30.34;102669.78;6071097;23;20092;-85
2022/10/03 10:45:21;;;;;;;6.53;1.75;;;;;;;29.17;33.30;102663.06;6122088;23;20037;-86
2022/10/03 10:48:05;;;;;;;5.22;1.67;;;;;;;29.06;31.89;102672.22;6119211;23;20006;-86
2022/10/03 10:51:12;;;;;;;5.72;1.95;;;;;;;29.88;32.92;102666.47;6120498;23;20010;-86
2022/10/03 10:54:13;;;;;;;8.45;1.85;;;;;;;31.03;31.68;102666.38;6109809;23;20426;-85
2022/10/03 10:57:06;;;;;;;6.15;2.20;;;;;;;30.87;31.06;102668.88;6121257;23;20030;-86
2022/10/03 10:59:37;;;;;;;11.98;2.47;;;;;;;29.05;30.85;102670.50;6120742;23;20013;-86
2022/10/03 11:02:40;;;;;;;7.50;1.75;;;;;;;28.34;35.82;102672.19;6120596;23;20450;-86
2022/10/03 11:05:33;;;;;;;4.40;1.70;;;;;;;27.17;36.58;102662.97;6120674;23;20052;-86
2022/10/03 11:08:16;;;;;;;7.13;1.63;;;;;;;26.93;34.50;102668.53;6121970;23;20327;-86
2022/10/03 11:11:12;;;;;;;4.70;1.60;;;;;;;26.68;36.34;102672.38;6121757;23;20710;-87
2022/10/03 11:13:46;;;;;;;6.75;1.88;;;;;;;26.03;35.89;102670.22;6121235;23;20002;-86
2022/10/03 11:16:54;;;;;;;6.30;1.63;;;;;;;26.14;36.34;102672.09;6122171;23;20013;-86
2022/10/03 11:19:28;;;;;;;6.60;1.60;;;;;;;26.23;34.99;102655.13;6077830;23;20391;-88
2022/10/03 11:22:14;;;;;;;4.03;1.42;;;;;;;26.62;34.54;102656.56;6122275;23;20008;-86
2022/10/03 11:25:14;;;;;;;5.18;2.33;;;;;;;25.99;36.48;102654.31;6106104;23;20060;-86
2022/10/03 11:27:48;;;;;;;3.78;1.20;;;;;;;26.48;34.78;102651.38;6121672;23;20012;-87
2022/10/03 11:30:22;;;;;;;7.60;1.60;;;;;;;26.17;34.77;102652.88;6120867;23;20006;-86
2022/10/03 11:33:25;;;;;;;4.22;1.38;;;;;;;26.61;35.61;102649.41;6121841;23;20449;-87
2022/10/03 11:36:26;;;;;;;4.72;1.83;;;;;;;27.40;34.30;102647.50;6120015;23;20077;-87
2022/10/03 11:39:04;;;;;;;6.60;1.58;;;;;;;27.31;35.19;102651.00;6121640;23;20450;-87
2022/10/03 11:41:47;;;;;;;5.82;1.92;;;;;;;27.56;33.90;102647.09;6117545;23;20060;-86
2022/10/03 11:44:20;;;;;;;3.05;1.40;;;;;;;27.69;34.21;102652.34;6120658;23;20422;-88
2022/10/03 11:47:14;;;;;;;6.30;1.45;;;;;;;27.30;34.44;102653.84;6119239;23;20493;-90
2022/10/03 11:49:46;;;;;;;4.78;1.73;;;;;;;27.07;32.71;102645.69;6121885;23;20040;-90
2022/10/03 11:52:17;;;;;;;5.05;1.60;;;;;;;27.40;34.61;102658.38;6122469;23;20006;-90
2022/10/03 11:54:47;;;;;;;4.82;1.40;;;;;;;27.63;34.75;102652.88;6120493;23;20417;-90
2022/10/03 11:57:38;;;;;;;7.15;1.63;;;;;;;28.00;34.24;102650.66;6119775;23;20005;-90
2022/10/03 12:00:05;;;;;;;6.10;1.38;;;;;;;27.79;32.52;102652.47;6122492;23;20016;-90
2022/10/03 12:03:09;;;;;;;7.50;1.45;;;;;;;27.77;34.93;102644.44;6119290;23;20014;-90
2022/10/03 12:05:43;;;;;;;5.93;1.42;;;;;;;27.56;34.07;102647.09;6121815;23;20005;-90
2022/10/03 12:11:24;;;;;;;7.00;1.75;;;;;;;26.31;34.52;102654.53;6120898;23;20037;-90
2022/10/03 12:14:08;;;;;;;5.90;1.50;;;;;;;25.93;36.19;102645.69;6122070;23;20006;-91
2022/10/03 12:16:52;;;;;;;5.07;1.80;;;;;;;26.08;36.09;102638.19;6119793;23;20010;-89
2022/10/03 12:20:01;;;;;;;7.40;1.50;;;;;;;26.31;35.68;102647.25;6122202;23;20010;-89
2022/10/03 12:22:40;;;;;;;10.65;1.98;;;;;;;24.54;37.41;102636.97;6120515;23;20017;-89
2022/10/03 12:25:33;;;;;;;5.30;1.50;;;;;;;24.79;38.65;102636.06;6122682;23;20010;-90
2022/10/03 12:28:25;;;;;;;7.18;1.90;;;;;;;24.90;37.95;102637.97;6122376;23;20481;-90
2022/10/03 12:31:01;;;;;;;5.93;1.17;;;;;;;24.55;36.34;102630.56;6120773;23;20038;-90
2022/10/03 12:33:52;;;;;;;4.40;1.30;;;;;;;24.69;36.80;102635.00;6122065;23;20002;-90
2022/10/03 12:36:45;;;;;;;7.13;1.50;;;;;;;24.36;37.75;102625.59;6120428;23;20056;-89
2022/10/03 12:39:32;;;;;;;;;;;;;;;24.90;38.08;102625.34;6145489;23;20006;-91
2022/10/03 12:42:16;;;;;;;6.40;1.58;;;;;;;24.67;37.38;102624.28;6120961;23;20318;-89
2022/10/03 12:45:00;;;;;;;6.18;1.70;;;;;;;24.77;36.55;102615.53;6121863;23;20020;-88
2022/10/03 12:47:41;;;;;;;4.65;1.52;;;;;;;24.41;37.37;102618.03;6120411;23;20064;-88
2022/10/03 12:50:13;;;;;;;8.35;1.73;;;;;;;24.48;38.49;102612.16;6121164;23;20033;-88
2022/10/03 12:53:03;;;;;;;3.60;1.50;;;;;;;24.32;37.62;102604.25;6118808;23;20446;-88
2022/10/03 12:55:33;;;;;;;7.63;1.52;;;;;;;23.96;37.77;102613.09;6121355;23;20006;-89
2022/10/03 12:58:07;;;;;;;6.85;1.70;;;;;;;23.82;39.30;102619.44;6120278;23;20010;-89
2022/10/03 13:00:54;;;;;;;4.43;1.55;;;;;;;23.49;39.06;102617.13;6118963;23;20077;-89
2022/10/03 13:03:37;;;;;;;9.75;2.08;;;;;;;23.32;40.13;102627.22;6120127;23;20009;-89
2022/10/03 13:06:21;;;;;;;4.85;1.45;;;;;;;23.35;40.21;102618.03;6121815;23;20005;-90
2022/10/03 13:09:06;;;;;;;7.63;1.90;;;;;;;23.46;39.94;102611.97;6119882;23;20497;-89
2022/10/03 13:11:43;;;;;;;6.30;1.50;;;;;;;23.63;39.17;102608.97;6121478;23;20010;-89
2022/10/03 13:14:49;;;;;;;5.63;1.80;;;;;;;23.57;39.18;102607.56;6121387;23;20068;-90